Atwood, Illinois
Current Conditions -  °F | °C
As of 9:53 PM on Tuesday 21 Oct 2014 (Local Time) from KCMI Reporting Station
Overcast Overcast  
Wind Chill: 50°   Ceiling: 2700
Heat Index: 50°   Visibility: 10mi
Dew Point: 40°   Wind: 14mph
Humidity: 68%   Direction: 20°NNE
Pressure: 30.23"   Gusts: 20mph
Location:  39.8°N, 88.46°W
Report Text: KCMI 220253Z 02012G17KT 10SM OVC027 10/04 A3023 RMK AO2 SLP239 T01000044 51015 $
Loading
Personal Weather Stations






























Interactive Weather Map
Tropical Storm Tracking
New forecast layout! Learn more

10-Day Weather Forecast

Advertisements
Track Severe Weather on mobile